createdAt,value
2022-12-26T00:02:15.441Z,0.30
2022-12-26T00:04:51.124Z,-0.10
2022-12-26T00:07:21.092Z,-0.10
2022-12-26T00:09:48.075Z,-0.10
2022-12-26T00:12:15.029Z,0.10
2022-12-26T00:14:41.959Z,-0.10
2022-12-26T00:17:08.962Z,-0.10
2022-12-26T00:19:35.841Z,-0.10
2022-12-26T00:22:03.024Z,0.00
2022-12-26T00:24:29.980Z,0.00
2022-12-26T00:26:56.876Z,0.00
2022-12-26T00:29:23.872Z,-0.20
2022-12-26T00:31:50.879Z,0.00
2022-12-26T00:34:17.934Z,0.10
2022-12-26T00:36:44.858Z,-0.20
2022-12-26T00:39:12.142Z,-0.10
2022-12-26T00:41:39.088Z,-0.10
2022-12-26T00:44:06.504Z,-0.20
2022-12-26T00:46:33.495Z,-0.20
2022-12-26T00:49:00.640Z,-0.20
2022-12-26T00:51:27.640Z,-0.20
2022-12-26T00:53:54.832Z,-0.30
2022-12-26T00:56:21.780Z,-0.10
2022-12-26T00:58:48.656Z,-0.40
2022-12-26T01:01:18.945Z,-0.70
2022-12-26T01:03:46.934Z,-0.50
2022-12-26T01:06:14.447Z,-0.40
2022-12-26T01:08:41.951Z,-0.30
2022-12-26T01:11:11.860Z,-0.50
2022-12-26T01:13:39.164Z,-0.40
2022-12-26T01:16:07.109Z,-0.60
2022-12-26T01:18:34.908Z,-0.50
2022-12-26T01:21:06.867Z,-0.40
2022-12-26T01:23:34.069Z,-0.50
2022-12-26T01:26:15.115Z,-0.40
2022-12-26T01:28:46.430Z,-0.20
2022-12-26T01:31:13.275Z,-0.30
2022-12-26T01:33:40.453Z,-0.30
2022-12-26T01:36:07.634Z,-0.50
2022-12-26T01:38:34.811Z,-0.60
2022-12-26T01:41:20.748Z,-0.40
2022-12-26T01:44:06.009Z,-0.30
2022-12-26T01:46:40.979Z,-0.20
2022-12-26T01:49:28.779Z,-0.50
2022-12-26T01:52:02.096Z,-0.40
2022-12-26T01:54:38.168Z,-0.40
2022-12-26T01:57:25.041Z,-0.60
2022-12-26T01:59:52.759Z,-0.50
2022-12-26T02:02:22.121Z,-0.30
2022-12-26T02:05:10.651Z,-0.20
2022-12-26T02:07:42.210Z,-0.20
2022-12-26T02:10:17.397Z,-0.50
2022-12-26T02:12:45.313Z,-0.60
2022-12-26T02:15:15.697Z,-0.70
2022-12-26T02:17:44.142Z,-0.70
2022-12-26T02:20:25.117Z,-0.50
2022-12-26T02:23:00.976Z,-0.60
2022-12-26T02:25:39.860Z,-0.50
2022-12-26T02:28:31.006Z,-0.80
2022-12-26T02:31:28.969Z,-0.80
2022-12-26T02:34:13.579Z,-0.70
2022-12-26T02:36:51.791Z,-0.60
2022-12-26T02:39:43.326Z,-0.60
2022-12-26T02:42:53.740Z,-0.80
2022-12-26T02:45:52.590Z,-0.80
2022-12-26T02:48:58.974Z,-0.70
2022-12-26T02:52:02.541Z,-0.50
2022-12-26T02:54:55.082Z,-0.50
2022-12-26T02:57:46.408Z,-0.60
2022-12-26T03:00:40.367Z,-0.30
2022-12-26T03:03:41.409Z,-0.40
2022-12-26T03:06:33.604Z,-0.50
2022-12-26T03:09:42.796Z,-0.50
2022-12-26T03:12:52.853Z,-0.50
2022-12-26T03:15:22.503Z,-0.90
2022-12-26T03:18:01.359Z,-0.70
2022-12-26T03:20:38.506Z,-0.40
2022-12-26T03:23:11.807Z,-0.40
2022-12-26T03:28:48.550Z,-0.40
2022-12-26T03:31:16.456Z,-0.50
2022-12-26T03:34:05.051Z,-0.60
2022-12-26T03:36:37.377Z,-0.40
2022-12-26T03:39:42.360Z,0.10
2022-12-26T03:42:53.078Z,-0.30
2022-12-26T03:46:31.643Z,-0.70
2022-12-26T03:49:27.817Z,-0.50
2022-12-26T03:52:22.185Z,-0.40
2022-12-26T03:55:10.165Z,-0.50
2022-12-26T03:58:03.929Z,-0.50
2022-12-26T04:00:52.414Z,-0.60
2022-12-26T04:03:40.534Z,-0.60
2022-12-26T04:06:32.948Z,-0.60
2022-12-26T04:09:30.896Z,-0.50
2022-12-26T04:12:20.149Z,-0.60
2022-12-26T04:15:24.910Z,-0.70
2022-12-26T04:18:34.759Z,-0.70
2022-12-26T04:21:55.516Z,-0.70
2022-12-26T04:24:52.207Z,-0.60
2022-12-26T04:27:40.676Z,-0.70
2022-12-26T04:30:27.257Z,-0.80
2022-12-26T04:33:21.022Z,-0.70
2022-12-26T04:36:10.946Z,-0.50
2022-12-26T04:39:22.264Z,-0.50
2022-12-26T04:44:55.624Z,-0.60
2022-12-26T04:47:24.120Z,-0.80
2022-12-26T04:50:10.176Z,-0.70
2022-12-26T04:55:40.274Z,-0.60
2022-12-26T04:58:07.084Z,-0.50
2022-12-26T05:00:34.010Z,-0.60
2022-12-26T05:03:19.880Z,-0.90
2022-12-26T05:05:55.220Z,-0.70
2022-12-26T05:09:02.112Z,-0.60
2022-12-26T05:11:30.244Z,-0.80
2022-12-26T05:13:59.181Z,-0.60
2022-12-26T05:16:46.168Z,-0.50
2022-12-26T05:19:34.051Z,-0.50
2022-12-26T05:22:20.820Z,-0.60
2022-12-26T05:25:06.730Z,-0.90
2022-12-26T05:27:58.613Z,-0.80
2022-12-26T05:30:25.943Z,-0.70
2022-12-26T05:33:11.539Z,-0.70
2022-12-26T05:35:39.085Z,-0.70
2022-12-26T05:38:06.143Z,-1.00
2022-12-26T05:40:33.167Z,-0.90
2022-12-26T05:43:00.118Z,-0.90
2022-12-26T05:45:27.420Z,-1.00
2022-12-26T05:48:01.805Z,-0.80
2022-12-26T05:50:29.143Z,-0.60
2022-12-26T05:52:59.882Z,-0.80
2022-12-26T05:55:26.700Z,-0.80
2022-12-26T05:57:54.037Z,-0.80
2022-12-26T06:00:21.383Z,-0.70
2022-12-26T06:02:48.831Z,-1.00
2022-12-26T06:05:16.101Z,-0.90
2022-12-26T06:07:43.025Z,-0.80
2022-12-26T06:10:10.479Z,-0.70
2022-12-26T06:12:37.845Z,-0.90
2022-12-26T06:15:05.261Z,-0.80
2022-12-26T06:17:32.376Z,-1.00
2022-12-26T06:19:59.403Z,-0.90
2022-12-26T06:22:28.766Z,-0.90
2022-12-26T06:24:55.822Z,-1.00
2022-12-26T06:27:34.652Z,-1.00
2022-12-26T06:37:12.170Z,-0.80
2022-12-26T06:39:39.298Z,-0.80
2022-12-26T06:42:06.335Z,-0.70
2022-12-26T06:44:33.446Z,-0.70
2022-12-26T06:47:03.804Z,-0.60
2022-12-26T06:49:33.710Z,-0.70
2022-12-26T06:55:48.441Z,-0.30
2022-12-26T06:58:17.216Z,-0.30
2022-12-26T07:00:47.037Z,-0.40
2022-12-26T07:03:14.076Z,-0.70
2022-12-26T07:05:40.935Z,-0.70
2022-12-26T07:08:07.921Z,-0.70
2022-12-26T07:10:36.990Z,-0.70
2022-12-26T07:13:06.127Z,-0.70
2022-12-26T07:15:33.080Z,-0.70
2022-12-26T07:18:02.881Z,-0.70
2022-12-26T07:20:29.802Z,-0.70
2022-12-26T07:22:56.871Z,-0.50
2022-12-26T07:25:23.792Z,-0.50
2022-12-26T07:27:54.312Z,-0.40
2022-12-26T07:30:21.700Z,-0.50
2022-12-26T07:32:48.612Z,-0.60
2022-12-26T07:35:18.907Z,-0.60
2022-12-26T07:37:49.083Z,-0.40
2022-12-26T07:40:18.941Z,-0.20
2022-12-26T07:42:45.806Z,-0.30
2022-12-26T07:45:12.678Z,-0.30
2022-12-26T07:47:39.583Z,-0.20
2022-12-26T07:50:07.037Z,-0.20
2022-12-26T07:52:34.183Z,-0.20
2022-12-26T07:55:01.174Z,-0.10
2022-12-26T07:57:48.018Z,-0.10
2022-12-26T08:00:15.232Z,0.00
2022-12-26T08:02:42.466Z,0.00
2022-12-26T08:05:09.489Z,0.10
2022-12-26T08:07:38.784Z,0.20
2022-12-26T08:10:06.093Z,0.20
2022-12-26T08:12:34.034Z,0.20
2022-12-26T08:15:01.298Z,0.20
2022-12-26T08:17:31.139Z,0.20
2022-12-26T08:19:58.024Z,0.40
2022-12-26T08:22:25.281Z,0.40
2022-12-26T08:24:52.167Z,0.50
2022-12-26T08:27:19.265Z,0.50
2022-12-26T08:29:47.702Z,0.70
2022-12-26T08:32:15.058Z,0.60
2022-12-26T08:34:44.876Z,0.70
2022-12-26T08:37:11.779Z,0.70
2022-12-26T08:39:39.441Z,0.80
2022-12-26T08:42:06.480Z,1.00
2022-12-26T08:44:33.449Z,1.10
2022-12-26T08:47:00.466Z,1.20
2022-12-26T08:49:27.336Z,1.20
2022-12-26T08:51:54.297Z,1.30
2022-12-26T08:54:21.227Z,1.50
2022-12-26T08:56:48.025Z,1.50
2022-12-26T08:59:15.208Z,1.40
2022-12-26T09:01:42.300Z,1.40
2022-12-26T09:04:09.204Z,1.60
2022-12-26T09:06:38.610Z,1.70
2022-12-26T09:09:08.199Z,1.80
2022-12-26T09:11:35.177Z,2.00
2022-12-26T09:14:03.747Z,2.00
2022-12-26T09:16:49.683Z,2.10
2022-12-26T09:19:18.894Z,2.20
2022-12-26T09:21:47.012Z,2.30
2022-12-26T09:26:57.960Z,2.40
2022-12-26T09:29:24.931Z,2.60
2022-12-26T09:31:52.163Z,2.70
2022-12-26T09:34:19.383Z,2.80
2022-12-26T09:36:46.817Z,3.00
2022-12-26T09:39:13.841Z,3.10
2022-12-26T09:42:02.684Z,3.30
2022-12-26T09:44:51.433Z,3.40
2022-12-26T09:47:37.763Z,3.40
2022-12-26T09:50:13.009Z,3.50
2022-12-26T09:52:56.667Z,3.50
2022-12-26T09:55:29.587Z,3.40
2022-12-26T09:58:01.332Z,3.80
2022-12-26T10:00:39.292Z,4.00
2022-12-26T10:03:08.270Z,4.20
2022-12-26T10:05:57.950Z,4.30
2022-12-26T10:08:53.343Z,4.40
2022-12-26T10:11:41.960Z,4.50
2022-12-26T10:14:32.228Z,4.70
2022-12-26T10:17:23.439Z,4.80
2022-12-26T10:20:14.415Z,4.90
2022-12-26T10:22:55.783Z,4.90
2022-12-26T10:25:30.267Z,4.90
2022-12-26T10:28:02.110Z,5.00
2022-12-26T10:30:36.553Z,5.00
2022-12-26T10:33:14.529Z,5.20
2022-12-26T10:35:44.209Z,5.30
2022-12-26T10:38:40.065Z,5.30
2022-12-26T10:41:25.488Z,5.60
2022-12-26T10:47:59.097Z,6.40
2022-12-26T10:50:31.725Z,6.40
2022-12-26T10:53:00.113Z,6.50
2022-12-26T10:55:34.676Z,6.50
2022-12-26T10:58:18.231Z,6.70
2022-12-26T11:00:45.250Z,6.80
2022-12-26T11:03:53.444Z,6.80
2022-12-26T11:06:22.814Z,6.80
2022-12-26T11:08:50.547Z,7.00
2022-12-26T11:11:24.549Z,7.20
2022-12-26T11:14:01.179Z,7.20
2022-12-26T11:16:35.768Z,7.50
2022-12-26T11:19:02.895Z,7.60
2022-12-26T11:21:32.123Z,7.80
2022-12-26T11:24:15.948Z,8.10
2022-12-26T11:26:42.802Z,8.30
2022-12-26T11:29:20.983Z,8.20
2022-12-26T11:32:02.156Z,8.40
2022-12-26T11:34:46.399Z,8.60
2022-12-26T11:37:28.980Z,8.50
2022-12-26T11:39:57.174Z,8.40
2022-12-26T11:42:25.971Z,8.30
2022-12-26T11:44:56.250Z,8.30
2022-12-26T11:47:27.328Z,8.20
2022-12-26T11:50:07.610Z,8.20
2022-12-26T11:52:43.188Z,8.20
2022-12-26T11:55:28.310Z,8.20
2022-12-26T11:58:10.122Z,8.30
2022-12-26T12:01:00.225Z,8.40
2022-12-26T12:03:43.710Z,8.50
2022-12-26T12:06:32.389Z,8.60
2022-12-26T12:09:34.665Z,8.40
2022-12-26T12:12:20.462Z,8.30
2022-12-26T12:15:03.688Z,8.30
2022-12-26T12:18:10.471Z,8.30
2022-12-26T12:21:01.233Z,8.50
2022-12-26T12:23:36.774Z,8.60
2022-12-26T12:26:08.233Z,8.60
2022-12-26T12:28:53.828Z,8.50
2022-12-26T12:31:34.671Z,8.40
2022-12-26T12:34:19.047Z,8.40
2022-12-26T12:37:04.532Z,8.40
2022-12-26T12:39:58.446Z,8.60
2022-12-26T12:42:37.135Z,8.70
2022-12-26T12:45:31.846Z,8.80
2022-12-26T12:48:19.816Z,8.90
2022-12-26T12:50:48.611Z,8.90
2022-12-26T12:53:48.899Z,8.80
2022-12-26T12:56:18.783Z,8.90
2022-12-26T12:58:59.557Z,9.00
2022-12-26T13:01:47.195Z,9.10
2022-12-26T13:04:20.134Z,9.30
2022-12-26T13:06:52.307Z,9.30
2022-12-26T13:09:41.217Z,9.40
2022-12-26T13:12:14.829Z,9.20
2022-12-26T13:14:46.896Z,9.20
2022-12-26T13:17:20.718Z,9.10
2022-12-26T13:20:06.451Z,9.00
2022-12-26T13:23:00.961Z,9.00
2022-12-26T13:25:34.108Z,8.80
2022-12-26T13:28:10.261Z,8.80
2022-12-26T13:30:38.495Z,8.90
2022-12-26T13:33:06.366Z,8.90
2022-12-26T13:35:55.746Z,8.80
2022-12-26T13:38:24.640Z,8.60
2022-12-26T13:41:23.504Z,8.40
2022-12-26T13:44:18.577Z,8.30
2022-12-26T13:46:48.513Z,8.20
2022-12-26T13:49:36.544Z,8.20
2022-12-26T13:52:12.374Z,8.30
2022-12-26T13:54:48.135Z,8.30
2022-12-26T14:36:32.361Z,7.00
2022-12-26T14:39:19.953Z,6.90
2022-12-26T14:42:34.297Z,6.70
2022-12-26T14:45:02.849Z,6.70
2022-12-26T14:47:48.889Z,6.60
2022-12-26T14:50:51.970Z,6.30
2022-12-26T14:53:24.655Z,6.00
2022-12-26T14:55:58.610Z,5.90
2022-12-26T14:58:31.479Z,5.80
2022-12-26T15:01:24.433Z,5.80
2022-12-26T15:04:08.962Z,5.60
2022-12-26T15:07:26.352Z,5.50
2022-12-26T15:09:56.242Z,5.60
2022-12-26T15:12:47.096Z,5.30
2022-12-26T15:15:40.759Z,5.30
2022-12-26T15:18:45.029Z,5.10
2022-12-26T15:21:59.027Z,5.10
2022-12-26T15:25:17.523Z,4.60
2022-12-26T15:28:10.626Z,4.60
2022-12-26T15:30:50.634Z,4.20
2022-12-26T15:33:29.176Z,4.10
2022-12-26T15:36:13.429Z,4.20
2022-12-26T15:39:01.817Z,4.30
2022-12-26T15:41:48.423Z,4.30
2022-12-26T15:44:21.262Z,3.70
2022-12-26T15:46:54.630Z,3.90
2022-12-26T15:49:27.185Z,3.60
2022-12-26T15:52:01.795Z,3.80
2022-12-26T15:54:58.559Z,3.80
2022-12-26T15:57:53.378Z,3.80
2022-12-26T16:00:30.784Z,3.50
2022-12-26T16:07:01.347Z,3.20
2022-12-26T16:09:49.909Z,3.70
2022-12-26T16:12:34.142Z,3.40
2022-12-26T16:15:10.024Z,3.00
2022-12-26T16:17:38.088Z,3.00
2022-12-26T16:20:43.703Z,3.10
2022-12-26T16:23:22.660Z,2.90
2022-12-26T16:25:55.165Z,3.30
2022-12-26T16:28:34.260Z,3.20
2022-12-26T16:31:01.621Z,2.70
2022-12-26T16:33:42.487Z,2.70
2022-12-26T16:36:11.524Z,2.80
2022-12-26T16:38:38.798Z,3.10
2022-12-26T16:41:26.829Z,3.10
2022-12-26T16:44:38.743Z,2.80
2022-12-26T16:47:14.370Z,2.80
2022-12-26T16:49:43.471Z,2.70
2022-12-26T16:52:33.353Z,2.30
2022-12-26T16:55:22.842Z,2.00
2022-12-26T16:57:52.194Z,2.30
2022-12-26T17:00:21.193Z,2.40
2022-12-26T17:02:51.802Z,2.60
2022-12-26T17:05:33.907Z,2.70
2022-12-26T17:08:01.184Z,2.80
2022-12-26T17:10:37.493Z,2.40
2022-12-26T17:16:44.818Z,2.30
2022-12-26T17:19:18.927Z,2.00
2022-12-26T17:22:23.203Z,1.70
2022-12-26T17:24:51.723Z,1.90
2022-12-26T17:27:23.442Z,1.90
2022-12-26T17:30:01.173Z,1.80
2022-12-26T17:32:36.000Z,1.90
2022-12-26T17:35:15.189Z,2.00
2022-12-26T17:37:42.428Z,2.00
2022-12-26T17:40:15.031Z,1.80
2022-12-26T17:43:07.942Z,1.90
2022-12-26T17:45:34.670Z,1.90
2022-12-26T17:48:01.659Z,1.90
2022-12-26T17:50:34.365Z,1.70
2022-12-26T17:53:27.980Z,1.90
2022-12-26T17:55:56.021Z,2.00
2022-12-26T17:58:23.376Z,1.80
2022-12-26T18:00:51.443Z,1.80
2022-12-26T18:03:18.650Z,1.70
2022-12-26T18:05:47.443Z,1.60
2022-12-26T18:12:01.647Z,1.70
2022-12-26T18:18:37.610Z,1.60
2022-12-26T18:21:07.161Z,1.50
2022-12-26T18:23:33.933Z,1.70
2022-12-26T18:26:03.769Z,1.90
2022-12-26T18:28:30.689Z,1.70
2022-12-26T18:30:58.306Z,1.80
2022-12-26T18:33:25.601Z,1.30
2022-12-26T18:35:53.000Z,1.30
2022-12-26T18:38:22.011Z,1.50
2022-12-26T18:40:53.536Z,1.60
2022-12-26T18:43:20.751Z,1.70
2022-12-26T18:45:47.610Z,1.60
2022-12-26T18:48:16.805Z,1.30
2022-12-26T18:50:44.405Z,1.20
2022-12-26T18:53:11.829Z,1.10
2022-12-26T18:55:39.975Z,1.20
2022-12-26T18:58:07.186Z,1.00
2022-12-26T19:00:34.152Z,1.40
2022-12-26T19:03:00.973Z,1.30
2022-12-26T19:05:31.167Z,1.30
2022-12-26T19:07:59.107Z,1.40
2022-12-26T19:10:29.849Z,1.40
2022-12-26T19:13:02.863Z,1.60
2022-12-26T19:15:33.354Z,1.00
2022-12-26T19:18:00.353Z,1.00
2022-12-26T19:20:28.142Z,1.20
2022-12-26T19:22:55.579Z,1.00
2022-12-26T19:25:24.639Z,0.70
2022-12-26T19:27:52.131Z,0.90
2022-12-26T19:30:23.036Z,0.90
2022-12-26T19:32:50.746Z,1.10
2022-12-26T19:35:18.056Z,0.90
2022-12-26T19:37:45.019Z,0.90
2022-12-26T19:40:12.387Z,1.00
2022-12-26T19:42:39.451Z,1.20
2022-12-26T19:45:08.819Z,1.30
2022-12-26T19:47:35.939Z,1.10
2022-12-26T19:50:04.582Z,1.00
2022-12-26T19:52:31.400Z,0.80
2022-12-26T19:54:58.164Z,0.60
2022-12-26T19:57:25.016Z,0.70
2022-12-26T19:59:51.767Z,0.90
2022-12-26T20:02:18.809Z,0.70
2022-12-26T20:04:45.719Z,0.80
2022-12-26T20:07:12.560Z,1.10
2022-12-26T20:09:39.349Z,1.00
2022-12-26T20:12:06.559Z,0.60
2022-12-26T20:14:33.651Z,0.50
2022-12-26T20:17:06.049Z,0.60
2022-12-26T20:19:34.459Z,0.80
2022-12-26T20:22:01.254Z,1.10
2022-12-26T20:24:28.032Z,1.10
2022-12-26T20:26:54.898Z,1.00
2022-12-26T20:29:21.770Z,0.60
2022-12-26T20:31:49.550Z,0.70
2022-12-26T20:34:16.841Z,0.50
2022-12-26T20:36:43.718Z,0.40
2022-12-26T20:39:15.778Z,1.00
2022-12-26T20:41:42.660Z,1.10
2022-12-26T20:44:14.886Z,1.20
2022-12-26T20:46:42.750Z,0.80
2022-12-26T20:49:10.011Z,0.90
2022-12-26T20:51:39.461Z,1.00
2022-12-26T20:54:08.109Z,0.80
2022-12-26T20:56:35.748Z,0.60
2022-12-26T20:59:03.355Z,0.80
2022-12-26T21:01:30.725Z,1.30
2022-12-26T21:03:58.218Z,1.20
2022-12-26T21:06:28.695Z,1.30
2022-12-26T21:08:56.523Z,1.00
2022-12-26T21:11:34.337Z,1.00
2022-12-26T21:14:03.801Z,1.30
2022-12-26T21:16:42.801Z,1.40
2022-12-26T21:19:15.102Z,1.30
2022-12-26T21:21:44.770Z,1.40
2022-12-26T21:24:15.190Z,1.50
2022-12-26T21:26:43.293Z,1.40
2022-12-26T21:29:13.712Z,1.30
2022-12-26T21:31:41.444Z,1.60
2022-12-26T21:34:08.858Z,1.30
2022-12-26T21:36:35.915Z,1.60
2022-12-26T21:39:07.701Z,1.90
2022-12-26T21:41:34.646Z,1.70
2022-12-26T21:44:02.093Z,1.80
2022-12-26T21:46:28.920Z,2.30
2022-12-26T21:48:55.850Z,2.10
2022-12-26T21:51:44.307Z,2.00
2022-12-26T21:54:29.571Z,2.30
2022-12-26T21:56:59.229Z,2.40
2022-12-26T21:59:45.008Z,2.40
2022-12-26T22:02:32.198Z,2.30
2022-12-26T22:05:00.053Z,2.30
2022-12-26T22:07:28.055Z,2.40
2022-12-26T22:09:55.183Z,2.40
2022-12-26T22:12:41.202Z,2.70
2022-12-26T22:15:32.504Z,2.60
2022-12-26T22:17:59.322Z,2.60
2022-12-26T22:20:26.477Z,2.30
2022-12-26T22:22:53.508Z,2.50
2022-12-26T22:25:20.570Z,2.50
2022-12-26T22:27:50.038Z,2.60
2022-12-26T22:30:17.047Z,2.70
2022-12-26T22:32:43.854Z,2.60
2022-12-26T22:35:18.580Z,2.70
2022-12-26T22:41:33.878Z,2.70
2022-12-26T22:44:01.102Z,2.80
2022-12-26T22:46:30.866Z,3.10
2022-12-26T22:48:57.816Z,3.30
2022-12-26T22:51:26.710Z,3.10
2022-12-26T22:53:58.241Z,3.00
2022-12-26T22:56:26.389Z,3.00
2022-12-26T22:59:03.632Z,3.10
2022-12-26T23:01:31.083Z,3.00
2022-12-26T23:03:59.650Z,3.20
2022-12-26T23:06:35.357Z,3.30
2022-12-26T23:09:04.966Z,3.30
2022-12-26T23:11:35.382Z,3.10
2022-12-26T23:14:07.224Z,3.30
2022-12-26T23:16:51.754Z,3.20
2022-12-26T23:19:43.534Z,3.20
2022-12-26T23:22:10.732Z,3.30
2022-12-26T23:24:37.677Z,3.30
2022-12-26T23:27:25.307Z,3.30
2022-12-26T23:30:11.979Z,3.40
2022-12-26T23:32:41.014Z,3.40
2022-12-26T23:35:09.702Z,3.50
2022-12-26T23:37:36.920Z,3.70
2022-12-26T23:40:05.084Z,3.60
2022-12-26T23:42:31.971Z,3.40
2022-12-26T23:44:58.968Z,3.60
2022-12-26T23:47:26.110Z,3.60
2022-12-26T23:49:53.013Z,3.60
2022-12-26T23:52:19.786Z,3.70
2022-12-26T23:54:46.583Z,3.70
2022-12-26T23:57:13.672Z,3.60
2022-12-26T23:59:40.765Z,3.90
